Ituna, Canada
Current Conditions -  °F | °C
As of 10:00 AM on Monday 24 Nov 2014 (Local Time) from CYQV Reporting Station
Clear Clear  
Wind Chill: -4°   Ceiling: Unl
Heat Index: -4°   Visibility: 9mi
Dew Point: -8°   Wind: 0mph
Humidity: 85%   Direction: NA
Pressure: 29.91"   Gusts: NA
Location:  51.17°N, 103.5°W
Report Text: CYQV 241600Z AUTO 00000KT 9SM CLR M20/M22 A2991 RMK SLP181
Loading
Personal Weather Stations






























Interactive Weather Map New forecast layout! Learn more

10-Day Weather Forecast

Advertisements
Track Severe Weather on mobile